.
WxDataArchive / Data Records for 2015-11-24
2015-11-23 November 2015 2015-11-25

Data Records for Tuesday, 24 November 2015

Time	Temp	Chill	HIndex	Humid	Dewpt	 Wind 	HiWind	WindDir	Rain 	Barom
-----	----	-----	------	-----	-----	------	------	-------	-----	-----
00:00	30.9	30.9	30.9	87	27.5	0	1	248	0.00	30.166 
00:05	30.7	30.7	30.7	87	27.3	0	1	248	0.00	30.166 
00:10	30.7	30.7	30.7	87	27.3	0	0	---	0.00	30.166 
00:15	30.7	30.7	30.7	87	27.3	0	1	248	0.00	30.166 
00:20	30.7	30.7	30.7	87	27.3	0	1	248	0.00	30.166 
00:25	30.7	30.7	30.7	87	27.3	0	1	248	0.00	30.166 
00:30	30.7	30.7	30.7	87	27.3	0	1	248	0.00	30.168 
00:35	30.9	30.9	30.9	87	27.5	0	2	248	0.00	30.168 
00:40	30.9	30.9	30.9	87	27.5	0	1	248	0.00	30.168 
00:45	30.9	30.9	30.9	87	27.5	0	0	---	0.00	30.169 
00:50	30.7	30.7	30.7	87	27.3	0	1	248	0.00	30.169 
00:55	30.7	30.7	30.7	87	27.3	0	1	248	0.00	30.169 
01:00	30.6	30.6	30.6	87	27.2	0	1	248	0.00	30.173 
01:05	30.6	30.6	30.6	87	27.2	0	1	248	0.00	30.173 
01:10	30.6	30.6	30.6	87	27.2	0	1	248	0.00	30.173 
01:15	30.4	30.4	30.4	87	27.0	0	0	---	0.00	30.172 
01:20	30.3	30.3	30.3	87	26.9	0	0	---	0.00	30.172 
01:25	30.1	30.1	30.1	87	26.7	0	0	---	0.00	30.172 
01:30	30.0	30.0	30.0	87	26.6	0	0	---	0.00	30.171 
01:35	29.8	29.8	29.8	87	26.4	0	1	248	0.00	30.171 
01:40	29.8	29.8	29.8	87	26.4	0	0	---	0.00	30.171 
01:45	29.7	29.7	29.7	87	26.3	0	0	---	0.00	30.176 
01:50	29.5	29.5	29.5	88	26.4	0	0	---	0.00	30.176 
01:55	29.5	29.5	29.5	88	26.4	0	0	---	0.00	30.176 
02:00	29.5	29.5	29.5	88	26.4	0	1	248	0.00	30.180 
02:05	29.5	29.5	29.5	88	26.4	0	1	248	0.00	30.180 
02:10	29.5	29.5	29.5	88	26.4	0	1	248	0.00	30.180 
02:15	29.4	29.4	29.4	88	26.3	0	1	248	0.00	30.189 
02:20	29.4	29.4	29.4	88	26.3	0	1	248	0.00	30.189 
02:25	29.3	29.3	29.3	88	26.2	0	1	248	0.00	30.189 
02:30	29.1	29.1	29.1	88	26.0	0	0	---	0.00	30.194 
02:35	29.1	29.1	29.1	88	26.0	0	1	248	0.00	30.194 
02:40	29.1	29.1	29.1	88	26.0	0	1	248	0.00	30.194 
02:45	29.0	29.0	29.0	88	25.9	0	0	---	0.00	30.201 
02:50	29.0	29.0	29.0	88	25.9	0	1	248	0.00	30.201 
02:55	28.8	28.8	28.8	88	25.7	0	0	---	0.00	30.201 
03:00	28.7	28.7	28.7	88	25.6	0	0	---	0.00	30.209 
03:05	28.4	28.4	28.4	88	25.3	0	0	---	0.00	30.209 
03:10	28.2	28.2	28.2	88	25.1	0	0	---	0.00	30.209 
03:15	28.2	28.2	28.2	88	25.1	0	0	---	0.00	30.215 
03:20	27.9	27.9	27.9	88	24.8	0	0	---	0.00	30.215 
03:25	27.8	27.8	27.8	88	24.7	0	0	---	0.00	30.215 
03:30	27.6	27.6	27.6	89	24.8	0	0	---	0.00	30.223 
03:35	27.5	27.5	27.5	89	24.7	0	0	---	0.00	30.223 
03:40	27.3	27.3	27.3	89	24.5	0	0	---	0.00	30.223 
03:45	27.3	27.3	27.3	89	24.5	0	0	---	0.00	30.228 
03:50	27.3	27.3	27.3	89	24.5	0	0	---	0.00	30.228 
03:55	27.2	27.2	27.2	89	24.4	0	0	---	0.00	30.228 
04:00	27.2	27.2	27.2	89	24.4	0	0	---	0.00	30.230 
04:05	27.2	27.2	27.2	90	24.7	0	0	---	0.00	30.230 
04:10	27.2	27.2	27.2	90	24.7	0	0	---	0.00	30.230 
04:15	27.0	27.0	27.0	90	24.5	0	0	---	0.00	30.239 
04:20	26.9	26.9	26.9	90	24.4	0	0	---	0.00	30.239 
04:25	26.9	26.9	26.9	90	24.4	0	0	---	0.00	30.239 
04:30	26.9	26.9	26.9	90	24.4	0	0	---	0.00	30.247 
04:35	26.9	26.9	26.9	90	24.4	0	0	---	0.00	30.247 
04:40	26.9	26.9	26.9	90	24.4	0	0	---	0.00	30.247 
04:45	27.0	27.0	27.0	91	24.7	0	0	---	0.00	30.254 
04:50	27.0	27.0	27.0	90	24.5	0	0	---	0.00	30.254 
04:55	27.0	27.0	27.0	90	24.5	0	0	---	0.00	30.254 
05:00	26.9	26.9	26.9	90	24.4	0	0	---	0.00	30.260 
05:05	26.7	26.7	26.7	91	24.4	0	0	---	0.00	30.260 
05:10	26.9	26.9	26.9	91	24.6	0	0	---	0.00	30.260 
05:15	26.9	26.9	26.9	91	24.6	0	0	---	0.00	30.264 
05:20	26.7	26.7	26.7	91	24.4	0	0	---	0.00	30.264 
05:25	26.4	26.4	26.4	91	24.1	0	0	---	0.00	30.264 
05:30	26.1	26.1	26.1	90	23.6	0	0	---	0.00	30.274 
05:35	26.0	26.0	26.0	91	23.7	0	0	---	0.00	30.274 
05:40	26.1	26.1	26.1	91	23.8	0	0	---	0.00	30.274 
05:45	26.3	26.3	26.3	91	24.0	0	0	---	0.00	30.280 
05:50	26.3	26.3	26.3	91	24.0	0	0	---	0.00	30.280 
05:55	26.1	26.1	26.1	91	23.8	0	0	---	0.00	30.280 
06:00	25.8	25.8	25.8	91	23.5	0	0	---	0.00	30.282 
06:05	25.6	25.6	25.6	91	23.3	0	0	---	0.00	30.282 
06:10	25.3	25.3	25.3	91	23.0	0	0	---	0.00	30.282 
06:15	25.1	25.1	25.1	91	22.9	0	0	---	0.00	30.293 
06:20	24.8	24.8	24.8	91	22.6	0	0	---	0.00	30.293 
06:25	24.7	24.7	24.7	91	22.5	0	0	---	0.00	30.293 
06:30	24.4	24.4	24.4	91	22.2	0	0	---	0.00	30.299 
06:35	24.2	24.2	24.2	91	22.0	0	0	---	0.00	30.299 
06:40	24.1	24.1	24.1	91	21.9	0	0	---	0.00	30.299 
06:45	23.9	23.9	23.9	91	21.7	0	0	---	0.00	30.301 
06:50	23.8	23.8	23.8	91	21.6	0	0	---	0.00	30.301 
06:55	23.6	23.6	23.6	91	21.4	0	0	---	0.00	30.301 
07:00	23.5	23.5	23.5	91	21.3	0	0	---	0.00	30.305 
07:05	23.3	23.3	23.3	91	21.1	0	0	---	0.00	30.305 
07:10	23.2	23.2	23.2	91	21.0	0	0	---	0.00	30.305 
07:15	23.0	23.0	23.0	91	20.8	0	0	---	0.00	30.315 
07:20	22.9	22.9	22.9	91	20.7	0	0	---	0.00	30.315 
07:25	22.9	22.9	22.9	91	20.7	0	0	---	0.00	30.315 
07:30	22.7	22.7	22.7	91	20.5	0	0	---	0.00	30.317 
07:35	22.5	22.5	22.5	91	20.3	0	0	---	0.00	30.317 
07:40	22.5	22.5	22.5	91	20.3	0	0	---	0.00	30.317 
07:45	22.5	22.5	22.5	91	20.3	0	0	---	0.00	30.320 
07:50	22.4	22.4	22.4	91	20.2	0	0	---	0.00	30.320 
07:55	22.4	22.4	22.4	91	20.2	0	0	---	0.00	30.320 
08:00	22.5	22.5	22.5	91	20.3	0	0	---	0.00	30.327 
08:05	22.5	22.5	22.5	91	20.3	0	0	---	0.00	30.327 
08:10	22.7	22.7	22.7	91	20.5	0	0	---	0.00	30.327 
08:15	22.9	22.9	22.9	91	20.7	0	0	---	0.00	30.332 
08:20	23.0	23.0	23.0	91	20.8	0	0	---	0.00	30.332 
08:25	23.5	23.5	23.5	92	21.5	0	0	---	0.00	30.332 
08:30	23.8	23.8	23.8	92	21.8	0	0	---	0.00	30.343 
08:35	24.1	24.1	24.1	92	22.1	0	0	---	0.00	30.343 
08:40	24.5	24.5	24.5	92	22.5	0	0	---	0.00	30.343 
08:45	25.0	25.0	25.0	92	23.0	0	0	---	0.00	30.342 
08:50	25.7	25.7	25.7	92	23.7	0	0	---	0.00	30.342 
08:55	26.3	26.3	26.3	92	24.3	0	0	---	0.00	30.342 
09:00	26.9	26.9	26.9	92	24.9	0	0	---	0.00	30.341 
09:05	27.3	27.3	27.3	92	25.3	0	0	---	0.00	30.341 
09:10	27.8	27.8	27.8	93	26.0	0	0	---	0.00	30.341 
09:15	28.2	28.2	28.2	93	26.4	0	0	---	0.00	30.347 
09:20	28.8	28.8	28.8	93	27.0	0	0	---	0.00	30.347 
09:25	29.8	29.8	29.8	94	28.3	0	0	---	0.00	30.347 
09:30	30.7	30.7	30.7	93	28.9	0	0	---	0.00	30.349 
09:35	31.2	31.2	31.2	93	29.4	0	0	---	0.00	30.349 
09:40	31.5	31.5	31.5	93	29.7	0	0	---	0.00	30.349 
09:45	31.8	31.8	31.8	93	30.0	0	0	---	0.00	30.355 
09:50	32.1	32.1	32.1	92	30.0	0	0	---	0.00	30.355 
09:55	32.4	32.4	32.4	92	30.3	0	1	248	0.00	30.355 
10:00	32.5	32.5	32.5	92	30.4	0	1	248	0.00	30.357 
10:05	32.8	32.8	32.8	92	30.7	0	1	248	0.00	30.357 
10:10	32.8	32.8	32.8	91	30.5	0	1	248	0.01	30.357 
10:15	32.9	32.9	32.9	91	30.6	0	1	248	0.00	30.364 
10:20	33.1	33.1	33.1	91	30.8	0	1	248	0.00	30.364 
10:25	33.4	33.4	33.4	90	30.8	0	1	248	0.00	30.364 
10:30	33.7	33.7	33.7	90	31.1	0	1	248	0.00	30.367 
10:35	34.0	34.0	34.0	89	31.1	0	1	248	0.00	30.367 
10:40	34.3	34.3	34.3	89	31.4	0	1	248	0.00	30.367 
10:45	34.6	34.6	34.6	88	31.4	0	1	248	0.00	30.370 
10:50	34.9	34.9	34.9	87	31.4	0	1	248	0.00	30.370 
10:55	35.0	35.0	35.0	87	31.5	0	1	248	0.00	30.370 
11:00	35.5	35.5	35.5	86	31.7	0	0	---	0.00	30.367 
11:05	35.8	35.8	35.8	85	31.7	0	1	248	0.00	30.367 
11:10	36.2	36.2	36.2	85	32.1	0	0	---	0.00	30.367 
11:15	36.6	36.6	36.6	84	32.2	0	1	248	0.00	30.367 
11:20	37.2	37.2	37.2	83	32.5	0	1	248	0.00	30.367 
11:25	37.6	37.6	37.6	82	32.6	0	1	248	0.00	30.367 
11:30	38.0	38.0	38.0	82	33.0	0	1	248	0.00	30.372 
11:35	38.5	38.5	38.5	81	33.2	0	2	248	0.00	30.372 
11:40	38.9	38.9	38.9	81	33.6	0	1	248	0.00	30.372 
11:45	39.1	39.1	39.1	80	33.5	0	1	248	0.00	30.366 
11:50	39.2	39.2	39.2	80	33.6	0	2	248	0.01	30.366 
11:55	39.3	39.3	39.3	80	33.7	0	1	248	0.00	30.366 
12:00	39.5	39.5	39.5	79	33.5	0	2	248	0.01	30.362 
12:05	39.8	39.8	39.8	80	34.1	0	0	---	0.00	30.362 
12:10	39.9	39.9	39.9	79	33.9	0	1	248	0.00	30.362 
12:15	39.9	39.9	39.9	78	33.6	0	1	248	0.01	30.362 
12:20	39.8	39.8	39.8	79	33.8	0	1	248	0.01	30.362 
12:25	39.8	39.8	39.8	79	33.8	0	2	248	0.00	30.362 
12:30	39.6	39.6	39.6	79	33.6	0	1	248	0.01	30.358 
12:35	39.5	39.5	39.5	79	33.5	0	1	248	0.00	30.358 
12:40	39.6	39.6	39.6	79	33.6	0	2	248	0.01	30.358 
12:45	39.8	39.8	39.8	80	34.1	0	1	248	0.00	30.359 
12:50	40.1	40.1	40.1	79	34.1	0	3	248	0.01	30.359 
12:55	40.3	40.3	40.3	79	34.3	0	2	248	0.01	30.359 
13:00	40.5	40.5	40.5	79	34.5	0	1	248	0.00	30.348 
13:05	40.6	40.6	40.6	78	34.3	0	1	248	0.01	30.348 
13:10	40.8	40.8	40.8	78	34.5	0	1	248	0.00	30.348 
13:15	40.6	40.6	40.6	77	34.0	0	2	248	0.01	30.348 
13:20	40.5	40.5	40.5	77	33.9	0	1	248	0.00	30.348 
13:25	40.5	40.5	40.5	78	34.2	0	1	248	0.00	30.348 
13:30	40.5	40.5	40.5	78	34.2	0	1	248	0.01	30.348 
13:35	40.3	40.3	40.3	78	34.0	0	3	248	0.00	30.348 
13:40	40.2	40.2	40.2	78	33.9	0	1	248	0.00	30.348 
13:45	40.1	40.1	40.1	78	33.8	0	1	248	0.01	30.344 
13:50	39.9	39.9	39.9	78	33.6	0	1	248	0.00	30.344 
13:55	39.9	39.9	39.9	79	33.9	0	1	248	0.00	30.344 
14:00	39.9	39.9	39.9	79	33.9	0	0	---	0.00	30.344 
14:05	40.1	40.1	40.1	79	34.1	0	1	248	0.01	30.344 
14:10	40.2	40.2	40.2	78	33.9	0	0	---	0.00	30.344 
14:15	40.2	40.2	40.2	78	33.9	0	1	248	0.00	30.340 
14:20	40.1	40.1	40.1	78	33.8	0	1	248	0.00	30.340 
14:25	40.1	40.1	40.1	78	33.8	0	1	248	0.01	30.340 
14:30	39.9	39.9	39.9	78	33.6	0	1	248	0.00	30.346 
14:35	39.9	39.9	39.9	78	33.6	0	1	248	0.00	30.346 
14:40	40.1	40.1	40.1	78	33.8	0	1	248	0.00	30.346 
14:45	40.1	40.1	40.1	78	33.8	0	1	248	0.00	30.343 
14:50	40.2	40.2	40.2	77	33.6	0	1	248	0.01	30.343 
14:55	40.2	40.2	40.2	78	33.9	0	1	248	0.00	30.343 
15:00	40.5	40.5	40.5	78	34.2	0	1	248	0.00	30.336 
15:05	40.6	40.6	40.6	78	34.3	0	2	248	0.01	30.336 
15:10	40.6	40.6	40.6	79	34.6	0	1	248	0.00	30.336 
15:15	40.6	40.6	40.6	79	34.6	0	1	248	0.00	30.336 
15:20	40.6	40.6	40.6	79	34.6	0	1	248	0.01	30.336 
15:25	40.6	40.6	40.6	79	34.6	0	2	248	0.00	30.336 
15:30	40.6	40.6	40.6	79	34.6	0	1	248	0.00	30.336 
15:35	40.6	40.6	40.6	79	34.6	0	2	248	0.01	30.336 
15:40	40.6	40.6	40.6	79	34.6	0	1	248	0.00	30.336 
15:45	40.6	40.6	40.6	79	34.6	0	3	248	0.00	30.334 
15:50	40.5	40.5	40.5	79	34.5	0	3	248	0.00	30.334 
15:55	40.6	40.6	40.6	79	34.6	0	3	248	0.01	30.334 
16:00	40.6	40.6	40.6	80	34.9	0	3	248	0.00	30.335 
16:05	40.6	40.6	40.6	79	34.6	0	4	112	0.00	30.335 
16:10	40.6	40.6	40.6	79	34.6	0	3	112	0.01	30.335 
16:15	40.6	40.6	40.6	79	34.6	0	1	112	0.00	30.337 
16:20	40.6	40.6	40.6	80	34.9	0	2	112	0.00	30.337 
16:25	40.6	40.6	40.6	79	34.6	0	2	112	0.00	30.337 
16:30	40.6	40.6	40.6	79	34.6	0	2	112	0.01	30.335 
16:35	40.5	40.5	40.5	79	34.5	0	2	112	0.00	30.335 
16:40	40.5	40.5	40.5	80	34.8	0	2	112	0.00	30.335 
16:45	40.3	40.3	40.3	80	34.6	0	1	112	0.00	30.337 
16:50	40.2	40.2	40.2	81	34.8	0	1	112	0.00	30.337 
16:55	39.9	39.9	39.9	81	34.6	0	0	---	0.00	30.337 
17:00	39.8	39.8	39.8	82	34.8	0	1	112	0.01	30.340 
17:05	39.6	39.6	39.6	83	34.9	0	1	112	0.00	30.340 
17:10	39.3	39.3	39.3	84	34.9	0	0	---	0.00	30.340 
17:15	39.1	39.1	39.1	84	34.7	0	0	---	0.00	30.341 
17:20	38.8	38.8	38.8	84	34.4	0	0	---	0.00	30.341 
17:25	38.5	38.5	38.5	85	34.4	0	0	---	0.00	30.341 
17:30	38.2	38.2	38.2	85	34.1	0	0	---	0.00	30.346 
17:35	37.8	37.8	37.8	85	33.7	0	0	---	0.00	30.346 
17:40	37.5	37.5	37.5	86	33.7	0	1	112	0.00	30.346 
17:45	37.2	37.2	37.2	87	33.7	0	0	---	0.00	30.344 
17:50	37.0	37.0	37.0	87	33.5	0	1	112	0.00	30.344 
17:55	37.0	37.0	37.0	88	33.8	0	1	112	0.00	30.344 
18:00	36.9	36.9	36.9	88	33.7	0	1	112	0.00	30.342 
18:05	36.9	36.9	36.9	88	33.7	0	1	112	0.00	30.342 
18:10	36.6	36.6	36.6	88	33.4	0	1	112	0.00	30.342 
18:15	36.6	36.6	36.6	89	33.7	0	1	112	0.00	30.348 
18:20	36.5	36.5	36.5	89	33.6	0	1	112	0.00	30.348 
18:25	36.3	36.3	36.3	89	33.4	0	1	112	0.00	30.348 
18:30	36.2	36.2	36.2	89	33.3	0	1	112	0.00	30.355 
18:35	36.0	36.0	36.0	90	33.4	0	1	112	0.00	30.355 
18:40	35.9	35.9	35.9	90	33.3	0	1	112	0.00	30.355 
18:45	35.8	35.8	35.8	90	33.2	0	1	112	0.00	30.358 
18:50	35.6	35.6	35.6	90	33.0	0	1	112	0.00	30.358 
18:55	35.5	35.5	35.5	90	32.9	0	1	112	0.00	30.358 
19:00	35.3	35.3	35.3	90	32.7	0	1	112	0.00	30.359 
19:05	35.2	35.2	35.2	90	32.6	0	1	112	0.00	30.359 
19:10	35.0	35.0	35.0	91	32.6	0	1	112	0.00	30.359 
19:15	35.0	35.0	35.0	91	32.6	0	1	112	0.00	30.360 
19:20	34.9	34.9	34.9	91	32.5	0	1	112	0.00	30.360 
19:25	34.9	34.9	34.9	91	32.5	0	1	112	0.00	30.360 
19:30	34.7	34.7	34.7	91	32.3	0	1	112	0.00	30.361 
19:35	34.6	34.6	34.6	91	32.2	0	1	112	0.00	30.361 
19:40	34.4	34.4	34.4	91	32.0	0	1	112	0.00	30.361 
19:45	34.4	34.4	34.4	91	32.0	0	1	112	0.00	30.363 
19:50	34.3	34.3	34.3	91	32.0	0	0	---	0.00	30.363 
19:55	34.1	34.1	34.1	92	32.0	0	0	---	0.00	30.363 
20:00	34.1	34.1	34.1	92	32.0	0	0	---	0.00	30.371 
20:05	34.0	34.0	34.0	92	31.9	0	0	---	0.00	30.371 
20:10	33.8	33.8	33.8	92	31.7	0	0	---	0.00	30.371 
20:15	33.7	33.7	33.7	92	31.6	0	0	---	0.00	30.368 
20:20	33.4	33.4	33.4	92	31.3	0	0	---	0.00	30.368 
20:25	33.2	33.2	33.2	92	31.1	0	0	---	0.00	30.368 
20:30	33.1	33.1	33.1	92	31.0	0	1	112	0.00	30.364 
20:35	33.1	33.1	33.1	92	31.0	0	0	---	0.00	30.364 
20:40	33.2	33.2	33.2	92	31.1	0	1	112	0.00	30.364 
20:45	33.4	33.4	33.4	92	31.3	0	1	112	0.00	30.359 
20:50	33.5	33.5	33.5	92	31.4	0	1	112	0.00	30.359 
20:55	33.5	33.5	33.5	92	31.4	0	1	112	0.00	30.359 
21:00	33.7	33.7	33.7	92	31.6	0	1	112	0.00	30.358 
21:05	33.7	33.7	33.7	92	31.6	0	1	112	0.00	30.358 
21:10	33.5	33.5	33.5	92	31.4	0	1	112	0.00	30.358 
21:15	33.5	33.5	33.5	92	31.4	0	1	112	0.00	30.353 
21:20	33.5	33.5	33.5	92	31.4	0	1	112	0.00	30.353 
21:25	33.4	33.4	33.4	92	31.3	0	1	112	0.00	30.353 
21:30	33.4	33.4	33.4	92	31.3	0	1	112	0.00	30.353 
21:35	33.2	33.2	33.2	92	31.1	0	1	112	0.00	30.353 
21:40	33.2	33.2	33.2	92	31.1	0	1	112	0.00	30.353 
21:45	33.2	33.2	33.2	92	31.1	0	1	112	0.00	30.352 
21:50	33.1	33.1	33.1	92	31.0	0	1	112	0.00	30.352 
21:55	32.9	32.9	32.9	92	30.8	0	1	112	0.00	30.352 
22:00	32.9	32.9	32.9	92	30.8	0	1	112	0.00	30.352 
22:05	32.9	32.9	32.9	92	30.8	0	1	112	0.00	30.352 
22:10	32.9	32.9	32.9	92	30.8	0	1	112	0.00	30.352 
22:15	32.9	32.9	32.9	92	30.8	0	1	112	0.00	30.349 
22:20	32.9	32.9	32.9	92	30.8	0	1	112	0.00	30.349 
22:25	32.9	32.9	32.9	92	30.8	0	1	112	0.00	30.349 
22:30	32.8	32.8	32.8	92	30.7	0	1	112	0.00	30.348 
22:35	32.8	32.8	32.8	92	30.7	0	0	---	0.00	30.348 
22:40	32.7	32.7	32.7	92	30.6	0	0	---	0.00	30.348 
22:45	32.4	32.4	32.4	92	30.3	0	0	---	0.00	30.348 
22:50	32.2	32.2	32.2	92	30.1	0	0	---	0.00	30.348 
22:55	31.9	31.9	31.9	92	29.8	0	0	---	0.00	30.348 
23:00	31.6	31.6	31.6	92	29.5	0	0	---	0.00	30.350 
23:05	31.5	31.5	31.5	92	29.4	0	0	---	0.00	30.350 
23:10	31.6	31.6	31.6	93	29.8	0	0	---	0.00	30.350 
23:15	31.8	31.8	31.8	93	30.0	0	0	---	0.00	30.348 
23:20	31.8	31.8	31.8	93	30.0	0	0	---	0.00	30.348 
23:25	31.8	31.8	31.8	93	30.0	0	0	---	0.00	30.348 
23:30	31.6	31.6	31.6	92	29.5	0	0	---	0.00	30.347 
23:35	31.5	31.5	31.5	92	29.4	0	0	---	0.00	30.347 
23:40	31.3	31.3	31.3	92	29.3	0	0	---	0.00	30.347 
23:45	31.2	31.2	31.2	92	29.2	0	0	---	0.00	30.347 
23:50	31.0	31.0	31.0	93	29.2	0	0	---	0.00	30.347 
23:55	31.0	31.0	31.0	93	29.2	0	0	---	0.00	30.347 

CoCoRaHS
IN-AL-39
A2 Web Hosting
Creative Commons License
GoDaddy
search engine by freefind advanced

loaded 2018-11-12 15:11:14 • last modified 2010-11-18 10:43:29
Privacy PolicyDisclaimer
• wx.awcolley.com is powered by PmWiki v.2002016 •
• all content (unless otherwise noted) © 2018 A W Colley